createdAt,value
2018-01-14T00:01:25.727Z,19.80
2018-01-14T00:03:53.961Z,22.53
2018-01-14T00:06:21.498Z,21.03
2018-01-14T00:08:48.982Z,19.27
2018-01-14T00:11:16.498Z,21.63
2018-01-14T00:13:43.988Z,22.47
2018-01-14T00:16:11.505Z,25.43
2018-01-14T00:18:39.124Z,20.63
2018-01-14T00:21:06.656Z,23.00
2018-01-14T00:23:34.166Z,21.97
2018-01-14T00:26:02.475Z,19.10
2018-01-14T00:28:29.960Z,21.60
2018-01-14T00:30:57.591Z,20.93
2018-01-14T00:33:25.065Z,21.90
2018-01-14T00:35:52.548Z,24.93
2018-01-14T00:38:20.052Z,21.17
2018-01-14T00:40:47.537Z,20.47
2018-01-14T00:43:15.055Z,18.07
2018-01-14T00:45:42.518Z,21.67
2018-01-14T00:48:10.778Z,20.57
2018-01-14T00:50:39.008Z,19.53
2018-01-14T00:53:06.508Z,20.03
2018-01-14T00:55:33.966Z,17.63
2018-01-14T00:58:02.246Z,22.33
2018-01-14T01:00:29.739Z,19.13
2018-01-14T01:02:57.405Z,21.57
2018-01-14T01:05:24.866Z,21.23
2018-01-14T01:07:52.372Z,20.87
2018-01-14T01:10:19.868Z,21.57
2018-01-14T01:12:47.372Z,21.87
2018-01-14T01:15:14.883Z,22.73
2018-01-14T01:17:42.340Z,16.97
2018-01-14T01:20:09.836Z,19.33
2018-01-14T01:22:37.355Z,18.90
2018-01-14T01:25:04.869Z,16.60
2018-01-14T01:27:32.348Z,19.33
2018-01-14T01:30:00.597Z,21.63
2018-01-14T01:32:28.170Z,21.53
2018-01-14T01:34:55.672Z,20.47
2018-01-14T01:37:23.233Z,18.23
2018-01-14T01:39:50.725Z,20.30
2018-01-14T01:42:18.233Z,19.77
2018-01-14T01:44:45.756Z,15.00
2018-01-14T01:47:13.246Z,21.20
2018-01-14T01:49:40.713Z,19.37
2018-01-14T01:52:08.209Z,19.63
2018-01-14T01:54:35.678Z,19.23
2018-01-14T01:57:03.189Z,21.33
2018-01-14T01:59:30.686Z,20.00
2018-01-14T02:01:58.198Z,20.03
2018-01-14T02:04:26.425Z,22.53
2018-01-14T02:06:53.928Z,19.93
2018-01-14T02:09:21.462Z,20.40
2018-01-14T02:11:48.959Z,19.47
2018-01-14T02:14:16.456Z,20.17
2018-01-14T02:16:43.992Z,22.20
2018-01-14T02:19:11.516Z,19.53
2018-01-14T02:21:39.011Z,22.10
2018-01-14T02:24:06.499Z,21.33
2018-01-14T02:26:34.012Z,22.27
2018-01-14T02:29:01.510Z,22.77
2018-01-14T02:31:28.984Z,23.67
2018-01-14T02:33:56.503Z,22.00
2018-01-14T02:36:23.998Z,21.13
2018-01-14T02:38:51.490Z,19.10
2018-01-14T02:41:18.977Z,17.10
2018-01-14T02:43:46.478Z,19.57
2018-01-14T02:46:14.725Z,21.27
2018-01-14T02:48:42.219Z,18.43
2018-01-14T02:51:10.450Z,17.00
2018-01-14T02:53:37.982Z,20.80
2018-01-14T02:56:05.452Z,20.67
2018-01-14T02:58:32.950Z,19.83
2018-01-14T03:01:00.458Z,20.90
2018-01-14T03:03:27.934Z,19.13
2018-01-14T03:05:55.436Z,20.03
2018-01-14T03:08:23.678Z,20.67
2018-01-14T03:10:51.186Z,21.17
2018-01-14T03:13:19.441Z,18.37
2018-01-14T03:15:46.947Z,17.33
2018-01-14T03:18:14.451Z,20.53
2018-01-14T03:20:41.944Z,19.73
2018-01-14T03:23:09.430Z,19.23
2018-01-14T03:25:36.921Z,18.53
2018-01-14T03:28:04.406Z,20.53
2018-01-14T03:30:32.680Z,19.43
2018-01-14T03:33:00.936Z,22.77
2018-01-14T03:35:28.449Z,23.93
2018-01-14T03:37:55.922Z,20.37
2018-01-14T03:40:23.562Z,19.63
2018-01-14T03:42:51.085Z,20.73
2018-01-14T03:45:19.329Z,23.03
2018-01-14T03:47:46.844Z,22.73
2018-01-14T03:50:14.324Z,21.73
2018-01-14T03:52:41.829Z,23.33
2018-01-14T03:55:09.295Z,22.23
2018-01-14T03:57:37.571Z,23.10
2018-01-14T04:00:05.855Z,22.63
2018-01-14T04:02:34.134Z,23.40
2018-01-14T04:05:02.354Z,23.57
2018-01-14T04:07:30.650Z,20.77
2018-01-14T04:09:58.129Z,21.77
2018-01-14T04:12:26.379Z,23.93
2018-01-14T04:14:53.911Z,21.77
2018-01-14T04:17:21.456Z,24.80
2018-01-14T04:19:49.026Z,23.73
2018-01-14T04:22:16.496Z,23.00
2018-01-14T04:24:44.029Z,20.63
2018-01-14T04:27:11.506Z,22.27
2018-01-14T04:29:38.997Z,20.60
2018-01-14T04:32:06.468Z,22.23
2018-01-14T04:34:34.730Z,22.30
2018-01-14T04:37:02.212Z,22.83
2018-01-14T04:39:30.485Z,20.00
2018-01-14T04:41:58.759Z,23.40
2018-01-14T04:44:27.025Z,21.73
2018-01-14T04:46:54.535Z,23.07
2018-01-14T04:49:22.044Z,24.07
2018-01-14T04:51:49.503Z,21.43
2018-01-14T04:54:17.774Z,24.33
2018-01-14T04:56:45.266Z,27.33
2018-01-14T04:59:12.792Z,24.83
2018-01-14T05:01:40.302Z,26.43
2018-01-14T05:04:07.814Z,24.57
2018-01-14T05:06:35.343Z,27.10
2018-01-14T05:09:02.811Z,24.53
2018-01-14T05:11:30.288Z,24.67
2018-01-14T05:13:58.569Z,25.83
2018-01-14T05:16:26.820Z,23.03
2018-01-14T05:18:54.329Z,22.50
2018-01-14T05:21:21.807Z,22.47
2018-01-14T05:23:49.312Z,20.97
2018-01-14T05:26:17.556Z,22.53
2018-01-14T05:28:45.098Z,23.43
2018-01-14T05:31:12.564Z,21.97
2018-01-14T05:33:40.051Z,22.40
2018-01-14T05:36:07.533Z,22.97
2018-01-14T05:38:35.783Z,22.70
2018-01-14T05:41:03.254Z,23.37
2018-01-14T05:43:31.600Z,22.67
2018-01-14T05:45:59.053Z,21.67
2018-01-14T05:48:26.555Z,21.43
2018-01-14T05:50:54.795Z,21.63
2018-01-14T05:53:22.301Z,22.77
2018-01-14T05:55:49.796Z,21.87
2018-01-14T05:58:17.424Z,20.57
2018-01-14T06:00:44.886Z,19.23
2018-01-14T06:03:12.369Z,22.67
2018-01-14T06:05:39.867Z,21.17
2018-01-14T06:08:07.335Z,22.67
2018-01-14T06:10:35.597Z,22.37
2018-01-14T06:13:03.067Z,23.03
2018-01-14T06:15:31.331Z,22.13
2018-01-14T06:17:58.803Z,22.23
2018-01-14T06:20:27.185Z,22.80
2018-01-14T06:22:55.436Z,21.43
2018-01-14T06:25:22.928Z,21.60
2018-01-14T06:27:51.203Z,21.03
2018-01-14T06:30:18.717Z,20.73
2018-01-14T06:32:46.182Z,22.53
2018-01-14T06:35:13.680Z,21.67
2018-01-14T06:37:41.181Z,21.43
2018-01-14T06:40:08.711Z,20.90
2018-01-14T06:42:36.234Z,19.17
2018-01-14T06:45:04.500Z,20.23
2018-01-14T06:47:32.733Z,21.20
2018-01-14T06:50:00.208Z,17.80
2018-01-14T06:52:27.698Z,20.37
2018-01-14T06:54:55.966Z,18.80
2018-01-14T06:57:23.446Z,18.67
2018-01-14T06:59:51.701Z,20.63
2018-01-14T07:02:19.218Z,21.47
2018-01-14T07:04:46.678Z,19.27
2018-01-14T07:07:14.152Z,18.47
2018-01-14T07:09:41.641Z,18.63
2018-01-14T07:12:09.879Z,20.93
2018-01-14T07:14:37.366Z,19.70
2018-01-14T07:17:05.611Z,19.50
2018-01-14T07:19:33.232Z,18.70
2018-01-14T07:22:00.715Z,18.07
2018-01-14T07:24:28.636Z,18.57
2018-01-14T07:26:56.921Z,18.97
2018-01-14T07:29:25.158Z,19.47
2018-01-14T07:31:52.692Z,18.30
2018-01-14T07:34:20.667Z,18.80
2018-01-14T07:36:48.135Z,19.43
2018-01-14T07:39:15.641Z,20.33
2018-01-14T07:41:43.912Z,20.57
2018-01-14T07:44:12.134Z,20.70
2018-01-14T07:46:39.633Z,20.10
2018-01-14T07:49:07.102Z,19.77
2018-01-14T07:51:35.354Z,20.20
2018-01-14T07:54:02.839Z,17.97
2018-01-14T07:56:31.100Z,21.20
2018-01-14T07:58:58.580Z,20.40
2018-01-14T08:01:26.849Z,20.27
2018-01-14T08:03:55.124Z,19.43
2018-01-14T08:06:23.413Z,18.63
2018-01-14T08:08:50.879Z,20.73
2018-01-14T08:11:18.356Z,19.10
2018-01-14T08:13:45.877Z,18.53
2018-01-14T08:16:14.123Z,18.77
2018-01-14T08:18:41.623Z,19.00
2018-01-14T08:21:09.088Z,17.50
2018-01-14T08:23:36.579Z,17.50
2018-01-14T08:26:04.061Z,17.90
2018-01-14T08:28:31.554Z,16.70
2018-01-14T08:30:59.052Z,16.80
2018-01-14T08:33:26.560Z,15.97
2018-01-14T08:35:54.782Z,17.17
2018-01-14T08:38:22.341Z,15.70
2018-01-14T08:40:49.840Z,17.40
2018-01-14T08:43:18.130Z,16.23
2018-01-14T08:45:46.380Z,15.77
2018-01-14T08:48:13.848Z,14.83
2018-01-14T08:50:41.340Z,17.00
2018-01-14T08:53:08.806Z,13.63
2018-01-14T08:55:36.308Z,16.23
2018-01-14T08:58:03.876Z,15.60
2018-01-14T09:00:31.412Z,15.27
2018-01-14T09:02:58.904Z,17.50
2018-01-14T09:05:27.199Z,16.00
2018-01-14T09:07:54.719Z,15.63
2018-01-14T09:10:22.178Z,13.83
2018-01-14T09:12:49.764Z,15.40
2018-01-14T09:15:18.007Z,14.20
2018-01-14T09:17:45.504Z,15.67
2018-01-14T09:20:12.987Z,15.27
2018-01-14T09:22:40.543Z,16.43
2018-01-14T09:25:08.010Z,15.83
2018-01-14T09:27:35.478Z,15.80
2018-01-14T09:30:02.992Z,15.33
2018-01-14T09:32:31.239Z,14.23
2018-01-14T09:34:58.741Z,13.63
2018-01-14T09:37:26.216Z,14.03
2018-01-14T09:39:53.736Z,15.23
2018-01-14T09:42:21.966Z,14.93
2018-01-14T09:44:50.263Z,14.13
2018-01-14T09:47:17.784Z,14.20
2018-01-14T09:49:45.312Z,14.30
2018-01-14T09:52:12.809Z,15.33
2018-01-14T09:54:40.314Z,15.17
2018-01-14T09:57:08.994Z,14.70
2018-01-14T09:59:37.334Z,15.60
2018-01-14T10:02:04.826Z,14.20
2018-01-14T10:04:32.321Z,15.27
2018-01-14T10:06:59.800Z,13.90
2018-01-14T10:09:27.314Z,14.80
2018-01-14T10:11:55.533Z,15.57
2018-01-14T10:14:23.252Z,13.87
2018-01-14T10:16:51.499Z,15.13
2018-01-14T10:19:18.982Z,14.63
2018-01-14T10:21:47.260Z,14.50
2018-01-14T10:24:15.514Z,14.17
2018-01-14T10:26:43.885Z,14.73
2018-01-14T10:29:11.377Z,15.40
2018-01-14T10:31:38.898Z,15.87
2018-01-14T10:34:06.368Z,14.87
2018-01-14T10:36:34.249Z,14.57
2018-01-14T10:39:02.504Z,14.93
2018-01-14T10:41:29.986Z,15.00
2018-01-14T10:43:58.269Z,13.70
2018-01-14T10:46:25.766Z,14.80
2018-01-14T10:48:53.314Z,14.83
2018-01-14T10:51:20.788Z,13.30
2018-01-14T10:53:48.323Z,14.27
2018-01-14T10:56:15.813Z,13.80
2018-01-14T10:58:43.278Z,15.07
2018-01-14T11:01:10.781Z,13.93
2018-01-14T11:03:38.296Z,14.10
2018-01-14T11:06:05.790Z,12.93
2018-01-14T11:08:34.068Z,13.50
2018-01-14T11:11:02.336Z,14.00
2018-01-14T11:13:30.582Z,14.70
2018-01-14T11:15:58.106Z,14.87
2018-01-14T11:18:25.586Z,14.20
2018-01-14T11:20:53.130Z,15.70
2018-01-14T11:23:20.597Z,14.37
2018-01-14T11:25:48.131Z,13.83
2018-01-14T11:28:15.626Z,14.47
2018-01-14T11:30:43.133Z,13.07
2018-01-14T11:33:10.615Z,14.83
2018-01-14T11:35:38.119Z,14.10
2018-01-14T11:38:05.612Z,13.80
2018-01-14T11:40:33.132Z,14.80
2018-01-14T11:43:00.625Z,14.20
2018-01-14T11:45:28.915Z,14.10
2018-01-14T11:47:56.400Z,13.43
2018-01-14T11:50:23.924Z,13.90
2018-01-14T11:52:51.425Z,13.90
2018-01-14T11:55:19.107Z,15.93
2018-01-14T11:57:46.598Z,15.00
2018-01-14T12:00:14.099Z,13.23
2018-01-14T12:02:41.621Z,14.77
2018-01-14T12:05:09.141Z,14.87
2018-01-14T12:07:36.650Z,14.63
2018-01-14T12:10:04.134Z,15.63
2018-01-14T12:12:31.654Z,15.73
2018-01-14T12:14:59.145Z,15.47
2018-01-14T12:17:26.613Z,15.70
2018-01-14T12:19:54.122Z,15.23
2018-01-14T12:22:22.372Z,14.93
2018-01-14T12:24:49.881Z,14.57
2018-01-14T12:27:17.355Z,15.30
2018-01-14T12:29:44.860Z,15.70
2018-01-14T12:32:13.120Z,16.40
2018-01-14T12:34:41.364Z,16.47
2018-01-14T12:37:08.957Z,17.40
2018-01-14T12:39:36.602Z,16.83
2018-01-14T12:42:04.103Z,16.70
2018-01-14T12:44:31.612Z,17.37
2018-01-14T12:46:59.129Z,16.20
2018-01-14T12:49:26.624Z,15.70
2018-01-14T12:51:54.308Z,15.53
2018-01-14T12:54:21.818Z,17.80
2018-01-14T12:56:49.282Z,16.60
2018-01-14T12:59:16.817Z,16.77
2018-01-14T13:01:44.379Z,15.07
2018-01-14T13:04:11.865Z,15.40
2018-01-14T13:06:39.438Z,15.50
2018-01-14T13:09:06.929Z,15.33
2018-01-14T13:11:35.181Z,16.17
2018-01-14T13:14:02.674Z,17.73
2018-01-14T13:16:30.200Z,16.80
2018-01-14T13:18:57.712Z,16.43
2018-01-14T13:21:25.206Z,16.53
2018-01-14T13:23:52.710Z,18.17
2018-01-14T13:26:20.325Z,15.97
2018-01-14T13:28:47.834Z,15.70
2018-01-14T13:31:15.327Z,17.23
2018-01-14T13:33:42.830Z,16.43
2018-01-14T13:36:11.071Z,14.93
2018-01-14T13:38:38.570Z,14.87
2018-01-14T13:41:06.063Z,15.27
2018-01-14T13:43:33.565Z,13.50
2018-01-14T13:46:01.043Z,15.87
2018-01-14T13:48:29.277Z,15.00
2018-01-14T13:50:56.812Z,14.63
2018-01-14T13:53:24.283Z,15.53
2018-01-14T13:55:52.554Z,15.10
2018-01-14T13:58:20.059Z,15.57
2018-01-14T14:00:48.323Z,12.70
2018-01-14T14:03:15.796Z,15.17
2018-01-14T14:05:44.092Z,15.17
2018-01-14T14:08:11.561Z,15.53
2018-01-14T14:10:39.066Z,15.07
2018-01-14T14:13:06.569Z,15.20
2018-01-14T14:15:34.075Z,15.07
2018-01-14T14:18:01.556Z,14.70
2018-01-14T14:20:29.851Z,13.70
2018-01-14T14:22:57.344Z,15.40
2018-01-14T14:25:24.833Z,16.00
2018-01-14T14:27:52.343Z,14.87
2018-01-14T14:30:20.022Z,15.70
2018-01-14T14:32:48.236Z,18.70
2018-01-14T14:35:15.724Z,13.23
2018-01-14T14:37:43.227Z,14.80
2018-01-14T14:40:10.698Z,15.50
2018-01-14T14:42:38.218Z,14.37
2018-01-14T14:45:05.705Z,15.20
2018-01-14T14:47:33.211Z,14.07
2018-01-14T14:50:00.702Z,18.03
2018-01-14T14:52:28.810Z,14.87
2018-01-14T14:54:56.288Z,14.43
2018-01-14T14:57:24.743Z,14.53
2018-01-14T14:59:52.228Z,14.47
2018-01-14T15:02:20.555Z,14.93
2018-01-14T15:04:48.053Z,14.77
2018-01-14T15:07:16.323Z,14.93
2018-01-14T15:09:43.819Z,15.73
2018-01-14T15:12:11.291Z,15.23
2018-01-14T15:14:38.808Z,15.47
2018-01-14T15:17:07.071Z,14.10
2018-01-14T15:19:34.585Z,13.83
2018-01-14T15:22:02.065Z,13.87
2018-01-14T15:24:29.577Z,14.63
2018-01-14T15:26:57.052Z,14.10
2018-01-14T15:29:24.548Z,14.33
2018-01-14T15:31:52.019Z,14.17
2018-01-14T15:34:19.845Z,13.20
2018-01-14T15:36:47.328Z,13.60
2018-01-14T15:39:14.794Z,12.90
2018-01-14T15:41:42.331Z,13.80
2018-01-14T15:44:09.855Z,12.07
2018-01-14T15:46:37.354Z,13.43
2018-01-14T15:49:04.826Z,14.93
2018-01-14T15:51:33.020Z,14.93
2018-01-14T15:54:01.268Z,15.00
2018-01-14T15:56:28.782Z,15.07
2018-01-14T15:58:56.250Z,13.97
2018-01-14T16:01:23.790Z,15.20
2018-01-14T16:03:51.277Z,16.67
2018-01-14T16:06:18.909Z,15.73
2018-01-14T16:08:46.386Z,15.20
2018-01-14T16:11:13.857Z,15.70
2018-01-14T16:13:41.355Z,17.20
2018-01-14T16:16:09.583Z,16.73
2018-01-14T16:18:37.852Z,15.13
2018-01-14T16:21:05.349Z,15.83
2018-01-14T16:23:32.834Z,14.67
2018-01-14T16:26:01.125Z,15.47
2018-01-14T16:28:28.652Z,15.73
2018-01-14T16:30:56.124Z,14.23
2018-01-14T16:33:24.380Z,16.27
2018-01-14T16:35:51.880Z,16.00
2018-01-14T16:38:19.401Z,16.37
2018-01-14T16:40:47.102Z,18.90
2018-01-14T16:43:14.672Z,17.43
2018-01-14T16:45:42.221Z,18.37
2018-01-14T16:48:09.698Z,14.47
2018-01-14T16:50:37.211Z,17.80
2018-01-14T16:53:04.717Z,16.50
2018-01-14T16:55:32.220Z,16.20
2018-01-14T16:58:00.451Z,17.47
2018-01-14T17:00:28.718Z,15.00
2018-01-14T17:02:56.205Z,16.13
2018-01-14T17:05:23.717Z,20.67
2018-01-14T17:07:51.270Z,13.70
2018-01-14T17:10:19.512Z,15.90
2018-01-14T17:12:46.992Z,18.50
2018-01-14T17:15:15.259Z,16.97
2018-01-14T17:17:43.548Z,16.57
2018-01-14T17:20:11.081Z,17.73
2018-01-14T17:22:38.566Z,30.60
2018-01-14T17:25:06.158Z,22.40
2018-01-14T17:27:33.632Z,15.77
2018-01-14T17:30:01.129Z,17.63
2018-01-14T17:32:29.394Z,16.23
2018-01-14T17:34:57.131Z,16.23
2018-01-14T17:37:24.646Z,19.33
2018-01-14T17:39:52.123Z,17.00
2018-01-14T17:42:19.629Z,16.40
2018-01-14T17:44:47.098Z,18.23
2018-01-14T17:47:15.374Z,16.70
2018-01-14T17:49:43.606Z,14.73
2018-01-14T17:52:11.132Z,18.63
2018-01-14T17:54:39.566Z,15.87
2018-01-14T17:57:07.079Z,17.07
2018-01-14T17:59:34.602Z,18.20
2018-01-14T18:02:03.220Z,18.40
2018-01-14T18:04:30.772Z,16.33
2018-01-14T18:06:58.207Z,18.00
2018-01-14T18:09:26.524Z,17.67
2018-01-14T18:11:53.995Z,18.93
2018-01-14T18:14:21.533Z,22.60
2018-01-14T18:16:57.794Z,20.33
2018-01-14T18:19:25.342Z,21.60
2018-01-14T18:21:52.823Z,22.20
2018-01-14T18:24:20.299Z,20.80
2018-01-14T18:26:47.808Z,18.90
2018-01-14T18:29:15.302Z,17.37
2018-01-14T18:31:42.787Z,19.10
2018-01-14T18:34:10.269Z,17.40
2018-01-14T18:36:38.652Z,16.77
2018-01-14T18:39:06.919Z,18.47
2018-01-14T18:41:35.217Z,17.37
2018-01-14T18:44:02.706Z,17.07
2018-01-14T18:46:30.207Z,15.80
2018-01-14T18:48:58.461Z,15.00
2018-01-14T18:51:27.288Z,17.57
2018-01-14T18:53:55.546Z,16.73
2018-01-14T18:56:23.029Z,18.40
2018-01-14T18:58:50.548Z,16.83
2018-01-14T19:01:18.032Z,17.63
2018-01-14T19:03:46.934Z,19.10
2018-01-14T19:06:14.550Z,14.97
2018-01-14T19:08:42.673Z,17.90
2018-01-14T19:11:10.169Z,17.63
2018-01-14T19:13:37.679Z,18.07
2018-01-14T19:16:05.928Z,19.13
2018-01-14T19:18:33.453Z,18.77
2018-01-14T19:21:00.924Z,19.27
2018-01-14T19:23:28.455Z,17.80
2018-01-14T19:25:55.942Z,19.23
2018-01-14T19:28:23.530Z,19.83
2018-01-14T19:30:50.998Z,21.17
2018-01-14T19:33:19.242Z,46.07
2018-01-14T19:35:47.651Z,21.50
2018-01-14T19:38:16.059Z,19.10
2018-01-14T19:40:43.658Z,14.37
2018-01-14T19:43:11.138Z,19.40
2018-01-14T19:45:38.654Z,19.40
2018-01-14T19:48:06.168Z,14.40
2018-01-14T19:50:33.665Z,20.73
2018-01-14T19:53:01.187Z,19.77
2018-01-14T19:55:29.523Z,18.77
2018-01-14T19:57:56.999Z,17.63
2018-01-14T20:00:24.567Z,18.80
2018-01-14T20:02:52.053Z,23.60
2018-01-14T20:05:19.687Z,19.07
2018-01-14T20:07:47.163Z,23.13
2018-01-14T20:10:14.657Z,21.80
2018-01-14T20:12:42.155Z,26.20
2018-01-14T20:15:10.086Z,24.93
2018-01-14T20:17:37.634Z,22.47
2018-01-14T20:20:05.126Z,24.27
2018-01-14T20:22:32.639Z,24.27
2018-01-14T20:25:00.149Z,23.63
2018-01-14T20:27:27.673Z,24.47
2018-01-14T20:29:55.148Z,27.63
2018-01-14T20:32:22.662Z,24.37
2018-01-14T20:34:50.154Z,22.13
2018-01-14T20:37:18.034Z,19.43
2018-01-14T20:39:45.520Z,29.87
2018-01-14T20:42:12.998Z,50.57
2018-01-14T20:44:47.073Z,30.27
2018-01-14T20:47:14.557Z,32.43
2018-01-14T20:49:42.082Z,32.87
2018-01-14T20:52:09.609Z,27.80
2018-01-14T20:54:37.132Z,31.63
2018-01-14T20:57:05.447Z,29.53
2018-01-14T20:59:32.951Z,25.20
2018-01-14T21:02:00.465Z,23.97
2018-01-14T21:04:31.712Z,20.70
2018-01-14T21:06:59.191Z,21.27
2018-01-14T21:09:26.720Z,31.40
2018-01-14T21:11:54.276Z,29.53
2018-01-14T21:14:21.788Z,29.57
2018-01-14T21:16:49.342Z,27.73
2018-01-14T21:19:16.814Z,33.23
2018-01-14T21:21:45.172Z,26.83
2018-01-14T21:24:12.677Z,24.73
2018-01-14T21:26:40.238Z,20.30
2018-01-14T21:29:08.446Z,19.43
2018-01-14T21:31:35.965Z,17.47
2018-01-14T21:34:03.539Z,21.73
2018-01-14T21:36:31.118Z,24.53
2018-01-14T21:38:58.657Z,21.27
2018-01-14T21:41:26.165Z,21.80
2018-01-14T21:43:53.643Z,26.57
2018-01-14T21:46:21.930Z,26.23
2018-01-14T21:48:50.294Z,37.37
2018-01-14T21:51:18.596Z,36.03
2018-01-14T21:53:46.100Z,28.20
2018-01-14T21:56:13.590Z,29.03
2018-01-14T21:58:41.874Z,32.07
2018-01-14T22:01:10.128Z,24.07
2018-01-14T22:03:37.665Z,28.00
2018-01-14T22:06:05.150Z,29.77
2018-01-14T22:08:33.429Z,21.50
2018-01-14T22:11:01.684Z,29.03
2018-01-14T22:13:29.303Z,24.43
2018-01-14T22:15:56.772Z,24.07
2018-01-14T22:18:24.880Z,26.53
2018-01-14T22:20:52.397Z,26.17
2018-01-14T22:23:20.956Z,25.77
2018-01-14T22:25:48.484Z,26.90
2018-01-14T22:28:16.003Z,21.13
2018-01-14T22:30:43.519Z,33.50
2018-01-14T22:33:11.767Z,24.47
2018-01-14T22:35:39.327Z,22.97
2018-01-14T22:38:06.811Z,21.10
2018-01-14T22:40:35.129Z,22.80
2018-01-14T22:43:02.653Z,43.57
2018-01-14T22:45:30.910Z,24.83
2018-01-14T22:47:58.414Z,28.60
2018-01-14T22:50:25.919Z,26.00
2018-01-14T22:52:53.412Z,21.23
2018-01-14T22:55:21.018Z,20.80
2018-01-14T22:57:48.562Z,25.93
2018-01-14T23:00:16.141Z,20.83
2018-01-14T23:02:44.396Z,24.17
2018-01-14T23:05:12.334Z,22.97
2018-01-14T23:07:40.625Z,30.07
2018-01-14T23:10:08.098Z,21.77
2018-01-14T23:12:35.629Z,21.37
2018-01-14T23:15:08.082Z,23.20
2018-01-14T23:17:36.359Z,26.47
2018-01-14T23:20:04.609Z,29.20
2018-01-14T23:22:32.167Z,34.83
2018-01-14T23:24:59.667Z,34.60
2018-01-14T23:27:27.176Z,26.50
2018-01-14T23:29:54.688Z,35.60
2018-01-14T23:32:22.324Z,30.73
2018-01-14T23:34:49.864Z,30.80
2018-01-14T23:37:17.354Z,21.43
2018-01-14T23:39:45.660Z,25.37
2018-01-14T23:42:13.145Z,21.30
2018-01-14T23:44:40.657Z,29.17
2018-01-14T23:47:08.136Z,25.67
2018-01-14T23:49:35.673Z,27.30
2018-01-14T23:52:03.902Z,25.43
2018-01-14T23:54:31.420Z,24.77
2018-01-14T23:56:58.886Z,27.87
2018-01-14T23:59:26.427Z,22.43
